createdAt,value
2018-09-11T00:00:52.212Z,14.00
2018-09-11T00:03:21.397Z,14.00
2018-09-11T00:05:50.992Z,14.00
2018-09-11T00:08:20.172Z,14.00
2018-09-11T00:10:49.456Z,14.00
2018-09-11T00:13:18.639Z,14.10
2018-09-11T00:15:47.971Z,14.10
2018-09-11T00:18:17.184Z,14.10
2018-09-11T00:20:46.436Z,14.10
2018-09-11T00:23:16.476Z,14.10
2018-09-11T00:25:45.735Z,14.00
2018-09-11T00:28:14.916Z,14.00
2018-09-11T00:30:44.206Z,13.90
2018-09-11T00:33:13.967Z,13.90
2018-09-11T00:35:43.377Z,13.80
2018-09-11T00:38:12.599Z,13.90
2018-09-11T00:40:41.799Z,14.00
2018-09-11T00:43:10.986Z,13.90
2018-09-11T00:45:40.316Z,13.90
2018-09-11T00:48:09.534Z,13.90
2018-09-11T00:50:38.729Z,13.90
2018-09-11T00:53:08.287Z,13.90
2018-09-11T00:55:39.861Z,13.80
2018-09-11T00:58:09.078Z,13.80
2018-09-11T01:00:38.246Z,13.80
2018-09-11T01:03:07.497Z,13.80
2018-09-11T01:05:41.457Z,13.80
2018-09-11T01:08:14.060Z,13.80
2018-09-11T01:10:43.257Z,13.80
2018-09-11T01:13:12.801Z,13.70
2018-09-11T01:15:44.763Z,13.70
2018-09-11T01:18:13.964Z,13.70
2018-09-11T01:20:43.262Z,13.70
2018-09-11T01:23:12.458Z,13.60
2018-09-11T01:25:41.836Z,13.60
2018-09-11T01:28:10.989Z,13.60
2018-09-11T01:30:40.189Z,13.60
2018-09-11T01:33:09.365Z,13.60
2018-09-11T01:35:44.255Z,13.60
2018-09-11T01:38:13.875Z,13.60
2018-09-11T01:40:43.078Z,13.60
2018-09-11T01:43:12.301Z,13.60
2018-09-11T01:45:43.655Z,13.60
2018-09-11T01:48:13.234Z,13.50
2018-09-11T01:50:42.387Z,13.50
2018-09-11T01:53:11.811Z,13.50
2018-09-11T01:55:41.213Z,13.50
2018-09-11T01:58:10.385Z,13.50
2018-09-11T02:00:39.609Z,13.40
2018-09-11T02:03:08.821Z,13.40
2018-09-11T02:05:38.637Z,13.30
2018-09-11T02:08:07.809Z,13.30
2018-09-11T02:10:37.272Z,13.30
2018-09-11T02:13:06.618Z,13.30
2018-09-11T02:15:36.907Z,13.30
2018-09-11T02:18:06.180Z,13.20
2018-09-11T02:20:35.365Z,13.30
2018-09-11T02:23:04.522Z,13.20
2018-09-11T02:25:34.872Z,13.20
2018-09-11T02:28:05.338Z,13.20
2018-09-11T02:30:34.650Z,13.10
2018-09-11T02:33:03.863Z,13.20
2018-09-11T02:35:35.172Z,13.20
2018-09-11T02:38:04.481Z,13.20
2018-09-11T02:40:33.703Z,13.10
2018-09-11T02:43:03.016Z,13.10
2018-09-11T02:45:32.331Z,13.10
2018-09-11T02:48:02.615Z,13.00
2018-09-11T02:50:31.921Z,13.00
2018-09-11T02:53:01.156Z,12.90
2018-09-11T02:55:32.696Z,12.90
2018-09-11T02:58:02.073Z,12.90
2018-09-11T03:00:31.254Z,12.90
2018-09-11T03:03:00.584Z,12.80
2018-09-11T03:05:30.887Z,12.90
2018-09-11T03:08:00.125Z,12.90
2018-09-11T03:10:30.066Z,12.80
2018-09-11T03:13:00.260Z,12.80
2018-09-11T03:15:32.691Z,12.80
2018-09-11T03:18:02.089Z,12.80
2018-09-11T03:20:32.390Z,12.80
2018-09-11T03:23:01.666Z,12.90
2018-09-11T03:25:30.960Z,12.90
2018-09-11T03:28:00.869Z,12.90
2018-09-11T03:30:30.262Z,12.70
2018-09-11T03:32:59.479Z,12.70
2018-09-11T03:35:30.832Z,12.60
2018-09-11T03:38:00.077Z,12.60
2018-09-11T03:40:29.827Z,12.50
2018-09-11T03:42:59.343Z,12.50
2018-09-11T03:45:35.177Z,12.50
2018-09-11T03:48:05.958Z,12.40
2018-09-11T03:50:35.253Z,12.40
2018-09-11T03:53:04.599Z,12.40
2018-09-11T03:55:33.882Z,12.40
2018-09-11T03:58:03.135Z,12.40
2018-09-11T04:00:32.511Z,12.50
2018-09-11T04:03:01.810Z,12.50
2018-09-11T04:05:31.119Z,12.40
2018-09-11T04:08:00.276Z,12.40
2018-09-11T04:10:29.467Z,12.40
2018-09-11T04:12:58.618Z,12.40
2018-09-11T04:15:28.158Z,12.40
2018-09-11T04:17:57.376Z,12.40
2018-09-11T04:20:26.621Z,12.30
2018-09-11T04:22:56.013Z,12.30
2018-09-11T04:25:25.311Z,12.30
2018-09-11T04:28:05.502Z,12.20
2018-09-11T04:30:36.255Z,12.20
2018-09-11T04:33:06.268Z,12.20
2018-09-11T04:35:36.616Z,12.20
2018-09-11T04:38:06.380Z,12.20
2018-09-11T04:40:35.664Z,12.30
2018-09-11T04:43:05.963Z,12.30
2018-09-11T04:45:35.304Z,12.30
2018-09-11T04:48:05.641Z,12.30
2018-09-11T04:50:35.018Z,12.30
2018-09-11T04:53:04.656Z,12.20
2018-09-11T04:55:41.053Z,12.20
2018-09-11T04:58:10.590Z,12.20
2018-09-11T05:00:40.234Z,12.20
2018-09-11T05:03:09.714Z,12.20
2018-09-11T05:05:44.913Z,12.10
2018-09-11T05:08:16.614Z,12.00
2018-09-11T05:10:46.710Z,12.10
2018-09-11T05:13:16.098Z,12.00
2018-09-11T05:15:46.039Z,12.00
2018-09-11T05:18:15.283Z,12.10
2018-09-11T05:20:44.558Z,12.10
2018-09-11T05:23:14.068Z,12.10
2018-09-11T05:25:43.714Z,12.10
2018-09-11T05:28:12.981Z,12.10
2018-09-11T05:30:42.272Z,12.10
2018-09-11T05:33:11.514Z,12.10
2018-09-11T05:35:40.733Z,12.10
2018-09-11T05:38:09.934Z,12.20
2018-09-11T05:40:39.144Z,12.20
2018-09-11T05:43:08.421Z,12.30
2018-09-11T05:45:37.847Z,12.40
2018-09-11T05:48:07.504Z,12.50
2018-09-11T05:50:37.043Z,12.60
2018-09-11T05:53:06.441Z,12.60
2018-09-11T05:55:37.132Z,12.60
2018-09-11T05:58:06.444Z,12.60
2018-09-11T06:00:35.959Z,12.70
2018-09-11T06:03:06.161Z,12.80
2018-09-11T06:05:35.488Z,12.90
2018-09-11T06:08:04.905Z,13.00
2018-09-11T06:10:34.202Z,13.00
2018-09-11T06:13:03.686Z,13.10
2018-09-11T06:15:33.245Z,13.10
2018-09-11T06:18:02.477Z,13.20
2018-09-11T06:20:31.976Z,13.30
2018-09-11T06:23:01.764Z,13.40
2018-09-11T06:25:31.269Z,13.60
2018-09-11T06:28:00.729Z,13.70
2018-09-11T06:30:30.252Z,13.80
2018-09-11T06:32:59.555Z,14.00
2018-09-11T06:35:29.046Z,14.10
2018-09-11T06:37:58.675Z,14.30
2018-09-11T06:40:28.121Z,14.40
2018-09-11T06:42:57.680Z,14.60
2018-09-11T06:45:27.323Z,14.70
2018-09-11T06:47:56.740Z,14.90
2018-09-11T06:50:26.045Z,15.00
2018-09-11T06:52:55.228Z,15.00
2018-09-11T06:55:24.844Z,15.20
2018-09-11T06:57:54.193Z,15.40
2018-09-11T07:00:24.484Z,15.60
2018-09-11T07:02:53.913Z,15.80
2018-09-11T07:05:23.531Z,15.90
2018-09-11T07:07:53.221Z,16.10
2018-09-11T07:10:22.688Z,16.30
2018-09-11T07:12:52.104Z,16.50
2018-09-11T07:15:23.623Z,16.80
2018-09-11T07:17:52.818Z,16.90
2018-09-11T07:20:22.544Z,17.20
2018-09-11T07:22:51.737Z,17.40
2018-09-11T07:25:21.294Z,17.50
2018-09-11T07:27:50.592Z,17.70
2018-09-11T07:30:20.174Z,17.90
2018-09-11T07:32:49.595Z,18.00
2018-09-11T07:35:19.412Z,18.20
2018-09-11T07:37:48.858Z,18.30
2018-09-11T07:40:18.316Z,18.50
2018-09-11T07:42:47.859Z,18.70
2018-09-11T07:45:18.385Z,18.70
2018-09-11T07:47:47.841Z,18.90
2018-09-11T07:50:17.301Z,18.90
2018-09-11T07:52:46.636Z,19.10
2018-09-11T07:55:17.109Z,19.20
2018-09-11T07:57:46.445Z,19.30
2018-09-11T08:00:15.800Z,19.30
2018-09-11T08:02:45.403Z,19.50
2018-09-11T08:05:15.733Z,19.60
2018-09-11T08:07:46.841Z,19.60
2018-09-11T08:10:16.108Z,19.80
2018-09-11T08:12:45.354Z,19.90
2018-09-11T08:15:17.022Z,20.00
2018-09-11T08:17:46.579Z,20.00
2018-09-11T08:20:15.997Z,20.10
2018-09-11T08:22:45.585Z,20.30
2018-09-11T08:25:14.933Z,20.40
2018-09-11T08:27:44.196Z,20.50
2018-09-11T08:30:13.912Z,20.60
2018-09-11T08:32:43.312Z,20.70
2018-09-11T08:35:13.054Z,20.80
2018-09-11T08:37:42.614Z,20.90
2018-09-11T08:40:12.068Z,21.00
2018-09-11T08:42:41.510Z,21.20
2018-09-11T08:45:19.381Z,21.30
2018-09-11T08:47:49.905Z,21.40
2018-09-11T08:50:19.859Z,21.50
2018-09-11T08:52:49.336Z,21.50
2018-09-11T08:55:18.709Z,21.50
2018-09-11T08:57:48.271Z,21.60
2018-09-11T09:00:17.555Z,21.70
2018-09-11T09:02:47.034Z,21.70
2018-09-11T09:05:16.360Z,21.70
2018-09-11T09:07:45.960Z,21.80
2018-09-11T09:10:15.405Z,21.80
2018-09-11T09:12:44.854Z,21.80
2018-09-11T09:15:14.445Z,21.80
2018-09-11T09:17:44.008Z,21.90
2018-09-11T09:20:13.431Z,21.90
2018-09-11T09:22:43.054Z,21.90
2018-09-11T09:25:14.779Z,22.00
2018-09-11T09:27:44.270Z,22.00
2018-09-11T09:30:13.601Z,22.10
2018-09-11T09:32:44.061Z,22.10
2018-09-11T09:35:13.505Z,22.30
2018-09-11T09:37:42.936Z,22.40
2018-09-11T09:40:12.467Z,22.50
2018-09-11T09:42:41.966Z,22.60
2018-09-11T09:45:11.544Z,22.80
2018-09-11T09:47:40.849Z,22.80
2018-09-11T09:50:10.412Z,22.90
2018-09-11T09:52:39.821Z,23.00
2018-09-11T09:55:10.207Z,23.10
2018-09-11T09:57:39.762Z,23.20
2018-09-11T10:00:09.269Z,23.20
2018-09-11T10:02:38.474Z,23.30
2018-09-11T10:05:09.167Z,23.50
2018-09-11T10:07:38.592Z,23.50
2018-09-11T10:10:08.228Z,23.60
2018-09-11T10:12:37.730Z,23.70
2018-09-11T10:15:09.957Z,23.80
2018-09-11T10:17:39.636Z,23.80
2018-09-11T10:20:11.872Z,23.90
2018-09-11T10:22:42.045Z,23.90
2018-09-11T10:25:17.705Z,24.10
2018-09-11T10:27:50.798Z,24.10
2018-09-11T10:30:20.023Z,24.20
2018-09-11T10:32:58.710Z,24.20
2018-09-11T10:35:30.460Z,24.40
2018-09-11T10:38:26.057Z,24.40
2018-09-11T10:40:55.422Z,24.50
2018-09-11T10:43:24.829Z,24.40
2018-09-11T10:45:54.275Z,24.40
2018-09-11T10:48:23.790Z,24.50
2018-09-11T10:50:53.876Z,24.50
2018-09-11T11:03:04.096Z,24.60
2018-09-11T11:05:33.983Z,24.70
2018-09-11T11:08:03.638Z,24.80
2018-09-11T11:10:35.395Z,24.90
2018-09-11T11:13:09.939Z,25.00
2018-09-11T11:15:40.167Z,25.10
2018-09-11T11:18:10.178Z,25.20
2018-09-11T11:20:40.804Z,25.30
2018-09-11T11:23:11.064Z,25.30
2018-09-11T11:25:46.108Z,25.40
2018-09-11T11:28:21.282Z,25.50
2018-09-11T11:30:51.166Z,25.50
2018-09-11T11:33:22.019Z,25.70
2018-09-11T11:35:56.109Z,25.80
2018-09-11T11:38:27.819Z,25.90
2018-09-11T11:40:57.864Z,26.00
2018-09-11T11:43:27.319Z,26.10
2018-09-11T11:45:57.008Z,26.10
2018-09-11T11:48:27.773Z,26.10
2018-09-11T11:50:58.554Z,26.10
2018-09-11T11:53:29.176Z,26.20
2018-09-11T11:55:59.465Z,26.30
2018-09-11T11:58:29.915Z,26.40
2018-09-11T12:01:00.269Z,26.20
2018-09-11T12:03:31.355Z,26.20
2018-09-11T12:06:03.017Z,26.30
2018-09-11T12:08:34.066Z,26.40
2018-09-11T12:11:04.910Z,26.50
2018-09-11T12:13:34.473Z,26.60
2018-09-11T12:16:08.274Z,26.70
2018-09-11T12:19:52.667Z,26.80
2018-09-11T12:22:29.186Z,27.00
2018-09-11T12:25:00.211Z,27.10
2018-09-11T12:27:34.799Z,27.20
2018-09-11T12:30:09.362Z,27.30
2018-09-11T12:32:39.882Z,27.30
2018-09-11T12:35:13.414Z,27.40
2018-09-11T12:37:47.310Z,27.40
2018-09-11T12:40:30.052Z,27.30
2018-09-11T12:43:19.629Z,27.40
2018-09-11T12:46:01.196Z,27.50
2018-09-11T12:48:34.972Z,27.60
2018-09-11T13:14:29.116Z,28.50
2018-09-11T13:16:59.283Z,28.80
2018-09-11T13:19:29.347Z,29.00
2018-09-11T13:21:59.134Z,29.20
2018-09-11T13:24:29.443Z,29.30
2018-09-11T13:26:58.705Z,29.60
2018-09-11T13:29:28.492Z,29.90
2018-09-11T13:31:57.730Z,30.00
2018-09-11T13:34:28.042Z,30.20
2018-09-11T13:36:57.909Z,30.40
2018-09-11T13:39:27.202Z,30.50
2018-09-11T13:44:31.208Z,32.00
2018-09-11T13:47:09.762Z,33.20
2018-09-11T13:49:39.066Z,34.00
2018-09-11T13:52:08.363Z,35.00
2018-09-11T13:54:48.624Z,35.40
2018-09-11T13:57:18.681Z,36.00
2018-09-11T13:59:50.436Z,37.00
2018-09-11T14:02:24.271Z,37.10
2018-09-11T14:04:53.652Z,37.20
2018-09-11T14:07:22.958Z,37.60
2018-09-11T14:09:52.161Z,37.40
2018-09-11T14:12:21.617Z,37.30
2018-09-11T14:14:55.236Z,36.90
2018-09-11T14:17:28.677Z,37.00
2018-09-11T14:19:58.013Z,36.50
2018-09-11T14:22:27.368Z,36.70
2018-09-11T14:25:16.076Z,37.20
2018-09-11T14:27:45.219Z,37.40
2018-09-11T14:30:14.559Z,37.20
2018-09-11T14:32:44.065Z,36.80
2018-09-11T14:38:08.539Z,37.70
2018-09-11T14:40:53.123Z,38.10
2018-09-11T14:43:22.328Z,38.80
2018-09-11T14:45:51.586Z,38.60
2018-09-11T14:48:21.113Z,38.30
2018-09-11T14:50:50.409Z,38.30
2018-09-11T14:53:19.940Z,38.40
2018-09-11T14:55:57.431Z,38.60
2018-09-11T14:58:26.807Z,38.80
2018-09-11T15:00:56.239Z,39.50
2018-09-11T15:03:25.735Z,39.80
2018-09-11T15:05:54.994Z,39.80
2018-09-11T15:08:24.351Z,40.30
2018-09-11T15:10:53.571Z,40.90
2018-09-11T15:13:22.865Z,41.20
2018-09-11T15:15:52.206Z,41.20
2018-09-11T15:18:27.583Z,41.60
2018-09-11T15:20:56.796Z,41.50
2018-09-11T15:23:26.700Z,41.60
2018-09-11T15:25:56.910Z,41.50
2018-09-11T15:28:26.140Z,41.00
2018-09-11T15:30:56.142Z,40.00
2018-09-11T15:33:25.460Z,39.00
2018-09-11T15:35:55.446Z,38.50
2018-09-11T15:38:24.804Z,38.30
2018-09-11T15:40:54.659Z,37.70
2018-09-11T15:43:23.884Z,36.70
2018-09-11T15:45:53.466Z,35.40
2018-09-11T15:48:23.520Z,34.10
2018-09-11T15:50:52.869Z,32.90
2018-09-11T15:53:22.167Z,31.70
2018-09-11T15:55:51.685Z,30.90
2018-09-11T15:58:21.666Z,30.20
2018-09-11T16:00:51.117Z,29.80
2018-09-11T16:03:20.474Z,29.50
2018-09-11T16:05:49.722Z,29.20
2018-09-11T16:08:19.253Z,28.90
2018-09-11T16:10:48.627Z,28.70
2018-09-11T16:13:17.803Z,28.50
2018-09-11T16:15:47.220Z,28.30
2018-09-11T16:18:16.505Z,28.10
2018-09-11T16:20:45.713Z,28.00
2018-09-11T16:23:15.961Z,27.90
2018-09-11T16:25:45.197Z,27.70
2018-09-11T16:28:14.684Z,27.70
2018-09-11T16:30:44.317Z,27.50
2018-09-11T16:33:13.926Z,27.50
2018-09-11T16:35:43.304Z,27.40
2018-09-11T16:38:12.538Z,27.30
2018-09-11T16:40:43.419Z,27.30
2018-09-11T16:43:13.242Z,27.20
2018-09-11T16:45:42.559Z,27.10
2018-09-11T16:48:12.265Z,27.00
2018-09-11T16:50:41.601Z,26.90
2018-09-11T16:53:10.891Z,26.70
2018-09-11T16:55:43.002Z,26.60
2018-09-11T16:58:12.356Z,26.40
2018-09-11T17:00:41.698Z,26.20
2018-09-11T17:03:11.002Z,25.90
2018-09-11T17:05:41.507Z,25.80
2018-09-11T17:08:11.424Z,25.60
2018-09-11T17:10:41.018Z,25.50
2018-09-11T17:13:11.763Z,25.30
2018-09-11T17:15:48.465Z,25.10
2018-09-11T17:18:17.733Z,24.90
2018-09-11T17:20:49.335Z,24.40
2018-09-11T17:23:19.178Z,24.40
2018-09-11T17:25:50.147Z,24.00
2018-09-11T17:28:20.239Z,23.60
2018-09-11T17:30:49.806Z,23.40
2018-09-11T17:33:19.103Z,23.20
2018-09-11T17:35:49.072Z,22.90
2018-09-11T17:38:18.932Z,22.80
2018-09-11T17:40:49.477Z,22.60
2018-09-11T17:43:18.744Z,22.40
2018-09-11T17:45:48.005Z,22.10
2018-09-11T17:48:22.869Z,21.80
2018-09-11T17:50:53.178Z,21.50
2018-09-11T17:53:22.430Z,21.30
2018-09-11T17:55:51.644Z,21.10
2018-09-11T17:58:21.747Z,20.90
2018-09-11T18:00:50.941Z,20.80
2018-09-11T18:03:20.583Z,20.60
2018-09-11T18:05:49.911Z,20.50
2018-09-11T18:08:31.775Z,20.40
2018-09-11T18:11:07.357Z,20.20
2018-09-11T18:13:36.648Z,20.10
2018-09-11T18:16:07.819Z,19.90
2018-09-11T18:18:37.255Z,19.70
2018-09-11T18:21:06.752Z,19.70
2018-09-11T18:23:36.940Z,19.60
2018-09-11T18:26:07.230Z,19.50
2018-09-11T18:28:36.949Z,19.30
2018-09-11T18:31:06.216Z,19.10
2018-09-11T18:33:35.483Z,19.10
2018-09-11T18:36:05.640Z,19.10
2018-09-11T18:38:36.092Z,19.10
2018-09-11T18:41:05.457Z,19.00
2018-09-11T18:43:34.745Z,18.90
2018-09-11T18:46:04.290Z,18.70
2018-09-11T18:48:43.732Z,18.60
2018-09-11T18:51:14.647Z,18.60
2018-09-11T18:53:43.805Z,18.60
2018-09-11T18:56:13.043Z,18.50
2018-09-11T18:58:42.297Z,18.40
2018-09-11T19:01:11.641Z,18.20
2018-09-11T19:03:41.066Z,18.10
2018-09-11T19:06:10.405Z,17.90
2018-09-11T19:08:39.678Z,17.80
2018-09-11T19:11:09.354Z,17.70
2018-09-11T19:13:39.160Z,17.60
2018-09-11T19:16:08.545Z,17.50
2018-09-11T19:18:37.889Z,17.40
2018-09-11T19:21:07.222Z,17.40
2018-09-11T19:23:36.539Z,17.40
2018-09-11T19:26:05.918Z,17.40
2018-09-11T19:28:35.489Z,17.40
2018-09-11T19:31:04.831Z,17.40
2018-09-11T19:33:34.338Z,17.40
2018-09-11T19:36:03.597Z,17.40
2018-09-11T19:38:32.943Z,17.30
2018-09-11T19:41:02.153Z,17.10
2018-09-11T19:43:31.398Z,16.90
2018-09-11T19:46:00.693Z,16.80
2018-09-11T19:48:29.898Z,16.80
2018-09-11T19:50:59.089Z,16.70
2018-09-11T19:53:28.468Z,16.60
2018-09-11T19:55:57.699Z,16.60
2018-09-11T19:58:26.936Z,16.60
2018-09-11T20:00:56.187Z,16.60
2018-09-11T20:03:25.390Z,16.60
2018-09-11T20:05:54.575Z,16.70
2018-09-11T20:08:23.802Z,16.50
2018-09-11T20:10:53.024Z,16.50
2018-09-11T20:13:22.238Z,16.40
2018-09-11T20:15:51.758Z,16.30
2018-09-11T20:18:20.993Z,16.20
2018-09-11T20:20:50.945Z,16.00
2018-09-11T20:23:20.400Z,16.00
2018-09-11T20:25:50.386Z,16.00
2018-09-11T20:28:19.796Z,16.00
2018-09-11T20:30:49.050Z,15.90
2018-09-11T20:33:18.575Z,15.70
2018-09-11T20:35:47.818Z,15.70
2018-09-11T20:38:17.280Z,15.60
2018-09-11T20:40:46.554Z,15.40
2018-09-11T20:43:16.079Z,15.40
2018-09-11T20:45:51.068Z,15.50
2018-09-11T20:48:24.510Z,15.60
2018-09-11T20:50:53.984Z,15.70
2018-09-11T20:53:23.210Z,15.50
2018-09-11T20:55:54.811Z,15.50
2018-09-11T20:58:25.877Z,15.50
2018-09-11T21:00:57.560Z,15.50
2018-09-11T21:03:29.281Z,15.30
2018-09-11T21:06:01.400Z,15.30
2018-09-11T21:08:31.684Z,15.30
2018-09-11T21:11:00.886Z,15.30
2018-09-11T21:13:31.104Z,15.30
2018-09-11T21:16:00.755Z,15.30
2018-09-11T21:18:30.098Z,15.30
2018-09-11T21:20:59.365Z,15.30
2018-09-11T21:23:29.596Z,15.20
2018-09-11T21:25:58.794Z,15.20
2018-09-11T21:28:28.753Z,15.10
2018-09-11T21:30:58.408Z,14.90
2018-09-11T21:33:27.673Z,14.90
2018-09-11T21:35:57.769Z,14.80
2018-09-11T21:38:27.045Z,14.80
2018-09-11T21:40:57.245Z,14.70
2018-09-11T21:43:26.467Z,14.60
2018-09-11T21:45:55.749Z,14.60
2018-09-11T21:48:24.972Z,14.60
2018-09-11T21:50:57.076Z,14.70
2018-09-11T21:53:26.711Z,14.70
2018-09-11T21:55:56.697Z,14.70
2018-09-11T21:58:25.889Z,14.60
2018-09-11T22:01:01.391Z,14.60
2018-09-11T22:03:31.047Z,14.60
2018-09-11T22:06:00.648Z,14.60
2018-09-11T22:08:31.877Z,14.60
2018-09-11T22:11:01.149Z,14.60
2018-09-11T22:13:30.339Z,14.50
2018-09-11T22:15:59.521Z,14.50
2018-09-11T22:18:28.697Z,14.50
2018-09-11T22:20:57.956Z,14.50
2018-09-11T22:23:27.694Z,14.40
2018-09-11T22:25:57.835Z,14.40
2018-09-11T22:28:27.996Z,14.40
2018-09-11T22:30:58.135Z,14.30
2018-09-11T22:33:27.365Z,14.30
2018-09-11T22:35:57.241Z,14.20
2018-09-11T22:38:26.544Z,14.20
2018-09-11T22:40:56.468Z,14.20
2018-09-11T22:43:27.542Z,14.20
2018-09-11T22:45:56.796Z,14.00
2018-09-11T22:48:26.052Z,13.80
2018-09-11T22:50:55.263Z,13.90
2018-09-11T22:53:24.497Z,13.80
2018-09-11T22:55:53.727Z,13.80
2018-09-11T22:58:23.055Z,13.80
2018-09-11T23:00:52.291Z,13.80
2018-09-11T23:03:22.209Z,13.80
2018-09-11T23:05:51.468Z,13.80
2018-09-11T23:08:20.732Z,13.80
2018-09-11T23:10:49.933Z,13.80
2018-09-11T23:13:19.110Z,13.90
2018-09-11T23:15:48.344Z,13.80
2018-09-11T23:18:17.598Z,13.80
2018-09-11T23:20:46.833Z,13.80
2018-09-11T23:23:16.330Z,13.80
2018-09-11T23:25:46.238Z,13.70
2018-09-11T23:28:15.437Z,13.80
2018-09-11T23:30:44.628Z,13.80
2018-09-11T23:33:13.822Z,13.80
2018-09-11T23:35:43.171Z,13.70
2018-09-11T23:38:12.397Z,13.80
2018-09-11T23:40:41.608Z,13.80
2018-09-11T23:43:10.806Z,13.80
2018-09-11T23:45:40.181Z,13.70
2018-09-11T23:48:09.367Z,13.70
2018-09-11T23:50:38.581Z,13.50
2018-09-11T23:53:07.896Z,13.40
2018-09-11T23:55:42.088Z,13.50
2018-09-11T23:58:11.298Z,13.40
